Aérodrome :
LOGIN :

S'inscrire | Disclaimer

   EN    FR    IT 

 










Légende :    VFR   VFR Marginal   IFR   IFR Intensif   IFR Très Intensif
Visi : 
Plafond : 
>= 8 km
>= 3000ft
5 à 8 km
1000 à 3000 ft
1500m à 5 km
500 à 1000 ft
800 à 1500m
200 à 500 ft
< 800m
< 200 ft
Symboles :   Orages  Brouillard  Fortes neiges  Fortes précipitations  Vent > 20 kt
SIGMETs :   Divers  Orages  Givrage  Turbulence  Onde Orograph.  Cendres Volcan.







- Altitude de l'aérodrome : 13 ft
- Code IATA : LYX
- Voir les cartes d'approche


EGMD - Lydd

DERNIER METAR :
  • 190320Z AUTO 26012KT 9999 FEW027/// 15/11 Q1014

METARs EXPIRÉS :
  • 190250Z AUTO 27013KT 9999 SCT025/// BKN031/// 16/11 Q1014
  • 190220Z AUTO 26014KT 9999 SCT027/// BKN032/// BKN047/// 16/12 Q1013
  • 190150Z AUTO 26013KT 9999 FEW029/// SCT044/// 16/12 Q1013
  • 190120Z AUTO 25016KT 9999 FEW032/// BKN046/// 16/12 Q1013
  • 190050Z AUTO 25017KT 9999 SCT029/// 16/12 Q1013

TAF TAF EGMD
Valide du 19 à 03h jusqu'au 19 à 12h UTC


190154Z 1903/1912 26014KT 9999 SCT045
PROB40
TEMPO 1910/1912 27016G26KT
ATIS : +44 1797 322 422
Pas de NOTAMs connus pour ce terrain.



MET'MAP, la Météo Aéronautique d'un coup d'oeil ! - Copyright ORBIFLY Décembre 2007 - Disclaimer

ORBIFLY MET'MAP TEAM :

Programmation & Développement : Alexandra Zaïnal
Conception & Développement : Baudouin d'Aumeries
Co-Programmation & Développement : Marc-Olivier Méhu
Soutien technique & logistique : Manuel Goepfert

Contact : metmap@orbifly.com




SOURCES & CREDITS :

   NOAA